Time;durP1;ratioP1;P1;durP2;ratioP2;P2;SDS_P1;SDS_P2;PMS_P1;PMS_P2;Temp;Humidity;BMP_temperature;BMP_pressure;BME280_temperature;BME280_humidity;BME280_pressure;Samples;Min_cycle;Max_cycle;Signal;HPM_P1;HPM_P2
2023/08/04 00:00:09;;;;;;;18.65;15.27;;;;;;;-145.63;54.67;38242.09;5031736;28;20040;-66
2023/08/04 00:02:36;;;;;;;25.25;16.70;;;;;;;-145.63;54.71;38251.84;5032207;28;20041;-66
2023/08/04 00:05:02;;;;;;;20.85;17.23;;;;;;;-145.63;55.47;38240.13;5033051;28;20079;-67
2023/08/04 00:07:29;;;;;;;19.90;16.33;;;;;;;-145.63;54.91;38226.44;5033653;28;20080;-67
2023/08/04 00:09:55;;;;;;;19.83;16.10;;;;;;;-145.63;55.21;37518.72;5029517;28;20021;-67
2023/08/04 00:12:21;;;;;;;19.15;15.68;;;;;;;-145.63;55.27;38246.00;5032499;28;20025;-68
2023/08/04 00:14:47;;;;;;;21.20;16.17;;;;;;;-145.63;54.91;38269.47;5031017;28;20028;-67
2023/08/04 00:17:13;;;;;;;17.63;15.77;;;;;;;-145.63;54.80;38238.16;5031178;28;20068;-67
2023/08/04 00:19:40;;;;;;;18.67;16.73;;;;;;;-145.63;54.74;38240.13;5032576;28;20045;-68
2023/08/04 00:22:05;;;;;;;18.70;16.20;;;;;;;-145.63;54.71;38240.13;5029190;28;20048;-68
2023/08/04 00:24:31;;;;;;;19.90;15.68;;;;;;;-145.63;54.89;38273.38;5031363;28;20056;-69
2023/08/04 00:26:57;;;;;;;17.90;16.10;;;;;;;-145.63;55.11;38265.53;5033679;28;20017;-68
2023/08/04 00:29:22;;;;;;;19.27;16.13;;;;;;;-145.63;55.25;38253.81;5032436;28;20017;-68
2023/08/04 00:31:48;;;;;;;19.30;16.20;;;;;;;-145.63;55.12;38263.59;5035816;28;20071;-68
2023/08/04 00:34:14;;;;;;;19.00;15.98;;;;;;;-145.63;55.30;38216.66;5034480;28;20022;-68
2023/08/04 00:36:39;;;;;;;17.25;14.73;;;;;;;-145.63;54.99;38246.00;5036204;28;20029;-67
2023/08/04 00:39:05;;;;;;;17.38;15.32;;;;;;;-145.63;55.02;38277.28;5036768;28;20038;-68
2023/08/04 00:41:31;;;;;;;18.10;15.43;;;;;;;-145.63;55.15;38253.81;5041448;28;20049;-67
2023/08/04 00:43:56;;;;;;;17.38;15.48;;;;;;;-145.63;54.92;38230.34;5044085;28;20245;-67
2023/08/04 00:46:23;;;;;;;17.23;15.45;;;;;;;-145.63;54.86;38253.81;5046500;28;20040;-66
2023/08/04 00:48:48;;;;;;;21.25;16.85;;;;;;;-145.63;55.29;38275.31;5030824;28;20206;-67
2023/08/04 00:51:14;;;;;;;17.45;15.35;;;;;;;-145.63;55.25;38253.81;5037109;28;20025;-67
2023/08/04 00:53:41;;;;;;;20.58;14.88;;;;;;;-145.63;54.94;38267.50;5040068;28;20032;-67
2023/08/04 00:56:06;;;;;;;18.20;14.85;;;;;;;-145.63;55.11;38277.28;5026224;28;20102;-67
2023/08/04 00:58:35;;;;;;;20.00;15.75;;;;;;;-145.63;55.44;38273.38;5032334;28;20017;-68
2023/08/04 01:01:00;;;;;;;17.20;15.35;;;;;;;-145.63;55.57;38271.41;5044046;28;20029;-68
2023/08/04 01:03:26;;;;;;;22.15;15.77;;;;;;;-145.63;55.35;38277.28;5033580;28;20045;-68
2023/08/04 01:06:14;;;;;;;23.80;16.58;;;;;;;-145.63;55.35;38289.00;5033641;28;20075;-68
2023/08/04 01:08:44;;;;;;;17.00;15.23;;;;;;;-145.63;55.08;38281.19;5040276;28;20030;-67
2023/08/04 01:11:18;;;;;;;17.17;15.45;;;;;;;-145.63;55.24;38289.00;5027560;28;20026;-67
2023/08/04 01:13:47;;;;;;;22.65;15.20;;;;;;;-145.63;55.26;38302.69;5045878;28;20025;-67
2023/08/04 01:16:12;;;;;;;19.35;16.05;;;;;;;-145.63;55.39;38306.59;5027397;28;20036;-67
2023/08/04 01:18:38;;;;;;;21.08;17.00;;;;;;;-145.63;56.30;38341.81;5039564;28;20041;-67
2023/08/04 01:21:04;;;;;;;16.95;15.13;;;;;;;-145.63;55.76;38290.97;5036515;28;20022;-67
2023/08/04 01:23:31;;;;;;;23.23;16.27;;;;;;;-145.63;55.73;38285.09;5030207;28;20036;-67
2023/08/04 01:25:57;;;;;;;16.65;15.13;;;;;;;-145.63;55.79;38314.44;5044406;28;20029;-67
2023/08/04 01:28:24;;;;;;;17.83;16.02;;;;;;;-145.63;55.87;37718.13;5040872;28;20030;-67
2023/08/04 01:30:54;;;;;;;18.67;16.38;;;;;;;-145.63;56.21;38332.03;5025526;28;20032;-66
2023/08/04 01:33:21;;;;;;;18.05;16.25;;;;;;;-145.63;56.13;38328.13;5030648;28;20072;-67
2023/08/04 01:35:47;;;;;;;18.10;15.80;;;;;;;-145.63;55.75;38314.44;5029090;28;20033;-66
2023/08/04 01:38:13;;;;;;;23.38;18.02;;;;;;;-145.63;56.03;38318.34;5027359;28;20022;-67
2023/08/04 01:40:38;;;;;;;24.85;17.60;;;;;;;-145.63;55.93;38320.28;5041051;28;20326;-66
2023/08/04 01:43:04;;;;;;;21.67;16.50;;;;;;;-145.63;55.72;38300.75;5042206;28;20025;-67
2023/08/04 01:45:30;;;;;;;22.15;16.25;;;;;;;-145.63;55.80;38333.97;5032998;28;20386;-68
2023/08/04 01:47:56;;;;;;;19.80;16.65;;;;;;;-145.63;55.51;38308.56;5032967;28;20104;-68
2023/08/04 01:50:21;;;;;;;18.40;16.50;;;;;;;-145.63;55.59;38275.31;5042151;28;20033;-69
2023/08/04 01:52:47;;;;;;;22.45;16.92;;;;;;;-145.63;55.41;38312.47;5025093;28;20347;-69
2023/08/04 01:55:14;;;;;;;23.33;15.75;;;;;;;-145.63;55.78;38314.44;5038819;28;20356;-68
2023/08/04 01:57:39;;;;;;;24.90;18.30;;;;;;;-145.63;55.67;38439.56;5033819;28;20217;-68
2023/08/04 02:00:06;;;;;;;25.10;17.70;;;;;;;-145.63;55.23;38277.28;5025000;28;20037;-68
2023/08/04 02:02:32;;;;;;;25.17;18.13;;;;;;;-145.63;55.29;38263.59;5024954;28;20034;-69
2023/08/04 02:04:58;;;;;;;20.58;17.73;;;;;;;-145.63;55.33;38290.97;5025129;28;20103;-70
2023/08/04 02:07:23;;;;;;;22.08;16.95;;;;;;;-145.63;55.42;38281.19;5024872;28;20029;-68
2023/08/04 02:09:49;;;;;;;19.48;17.15;;;;;;;-145.63;55.63;38308.56;5039564;28;20036;-68
2023/08/04 02:12:15;;;;;;;20.65;17.55;;;;;;;-145.63;55.37;38302.69;5034827;28;20030;-68
2023/08/04 02:14:40;;;;;;;22.70;16.83;;;;;;;-145.63;55.41;38271.41;5040441;28;20036;-67
2023/08/04 02:17:06;;;;;;;18.15;15.77;;;;;;;-145.63;55.37;38300.75;5043914;28;20041;-67
2023/08/04 02:19:41;;;;;;;19.80;17.48;;;;;;;-145.63;55.60;38332.03;5025049;28;20067;-67
2023/08/04 02:22:07;;;;;;;20.73;16.27;;;;;;;-145.63;55.21;38285.09;5024554;28;20029;-67
2023/08/04 02:24:32;;;;;;;19.83;15.90;;;;;;;-145.63;55.13;38277.28;5024608;28;20025;-65
2023/08/04 02:26:58;;;;;;;23.17;15.35;;;;;;;-145.63;55.30;38261.63;5032277;28;20041;-67
2023/08/04 02:29:24;;;;;;;17.80;15.90;;;;;;;-145.63;55.32;38263.59;5041464;28;20038;-66
2023/08/04 02:31:50;;;;;;;25.00;17.73;;;;;;;-145.63;55.30;38242.09;5023276;28;20088;-68
2023/08/04 02:34:15;;;;;;;18.60;15.23;;;;;;;-145.63;55.20;38232.31;5038956;28;20029;-67
2023/08/04 02:36:41;;;;;;;24.15;17.40;;;;;;;-145.63;55.03;38244.03;5028904;28;20029;-67
2023/08/04 02:39:07;;;;;;;22.77;16.35;;;;;;;-145.63;55.32;38242.09;5032939;28;20041;-67
2023/08/04 02:41:33;;;;;;;20.33;17.48;;;;;;;-145.63;55.23;38206.88;5036709;28;20029;-67
2023/08/04 02:44:00;;;;;;;21.33;16.38;;;;;;;-145.63;55.08;38253.81;5044127;28;20044;-67
2023/08/04 02:46:25;;;;;;;19.30;15.88;;;;;;;-145.63;55.08;38253.81;5044283;28;20101;-67
2023/08/04 02:48:52;;;;;;;24.20;16.77;;;;;;;-145.63;54.86;38234.25;5043277;28;20029;-67
2023/08/04 02:51:17;;;;;;;22.67;16.42;;;;;;;-145.63;54.95;38238.16;5034009;28;20022;-68
2023/08/04 02:53:45;;;;;;;18.92;16.77;;;;;;;-145.63;54.56;38202.97;5024061;28;20048;-67
2023/08/04 02:56:13;;;;;;;21.25;16.70;;;;;;;-145.63;54.63;38242.09;5025040;28;20057;-67
2023/08/04 02:58:39;;;;;;;20.40;15.95;;;;;;;-145.63;54.44;38197.13;5043977;28;20037;-67
2023/08/04 03:01:05;;;;;;;21.20;16.25;;;;;;;-145.63;54.76;38222.53;5027160;28;20315;-68
2023/08/04 03:03:32;;;;;;;19.27;15.40;;;;;;;-145.63;54.67;38193.19;5035936;28;20330;-68
2023/08/04 03:05:59;;;;;;;17.13;15.32;;;;;;;-145.63;54.61;38214.72;5036546;28;20053;-67
2023/08/04 03:08:25;;;;;;;17.35;15.52;;;;;;;-145.63;54.22;38206.88;5009100;28;20315;-67
2023/08/04 03:10:51;;;;;;;24.02;16.90;;;;;;;-145.63;54.29;38199.06;5043646;28;20025;-66
2023/08/04 03:13:16;;;;;;;20.98;15.48;;;;;;;-145.63;54.03;38206.88;5025892;28;20085;-66
2023/08/04 03:15:42;;;;;;;19.40;16.77;;;;;;;-145.63;54.17;38183.44;5037268;28;20025;-66
2023/08/04 03:18:08;;;;;;;18.15;15.65;;;;;;;-145.63;54.30;38201.03;5035082;28;20033;-66
2023/08/04 03:20:41;;;;;;;19.17;17.17;;;;;;;-145.63;54.35;38202.97;5027613;28;20216;-66
2023/08/04 03:23:07;;;;;;;19.55;16.10;;;;;;;-145.63;53.97;38195.16;5043681;28;20038;-66
2023/08/04 03:25:33;;;;;;;27.40;17.75;;;;;;;-145.63;53.69;38185.38;5023561;28;20025;-67
2023/08/04 03:28:00;;;;;;;20.70;16.10;;;;;;;-145.63;53.71;38150.19;5023673;28;20033;-66
2023/08/04 03:30:26;;;;;;;17.73;15.70;;;;;;;-145.63;53.96;38204.94;5034552;28;20043;-66
2023/08/04 03:32:52;;;;;;;18.90;15.82;;;;;;;-145.63;53.59;38161.91;5036975;28;20037;-67
2023/08/04 03:35:18;;;;;;;20.15;17.73;;;;;;;-145.63;53.85;38183.44;5039664;28;20025;-66
2023/08/04 03:37:43;;;;;;;18.52;16.73;;;;;;;-145.63;53.58;38189.28;5023545;28;20032;-67
2023/08/04 03:40:09;;;;;;;21.85;18.17;;;;;;;-145.63;54.17;38152.16;5028527;28;20026;-68
2023/08/04 03:42:38;;;;;;;18.65;15.95;;;;;;;-145.63;53.96;38159.97;5032626;28;20210;-67
2023/08/04 03:45:06;;;;;;;17.80;16.00;;;;;;;-145.63;54.46;38195.16;5030992;28;20036;-67
2023/08/04 03:47:31;;;;;;;17.35;15.65;;;;;;;-145.63;54.35;38179.50;5039895;28;20037;-67
2023/08/04 03:49:57;;;;;;;19.27;15.98;;;;;;;-145.63;54.18;38140.41;5023224;28;20030;-67
2023/08/04 03:52:23;;;;;;;19.98;16.90;;;;;;;-145.63;53.98;38150.19;5041592;28;20033;-67
2023/08/04 03:54:49;;;;;;;23.52;17.75;;;;;;;-145.63;53.85;38136.50;5029190;28;20026;-66
2023/08/04 03:57:14;;;;;;;19.75;17.70;;;;;;;-145.63;53.59;38158.00;5032540;28;20025;-66
2023/08/04 03:59:40;;;;;;;18.55;16.35;;;;;;;-145.63;53.53;38140.41;5038749;28;20037;-67
2023/08/04 04:02:07;;;;;;;22.17;16.70;;;;;;;-145.63;53.45;38111.09;5026272;28;20061;-67
2023/08/04 04:04:32;;;;;;;21.40;16.35;;;;;;;-145.63;53.50;38095.44;5047288;28;20218;-67
2023/08/04 04:06:58;;;;;;;20.85;17.70;;;;;;;-145.63;53.10;38062.22;5032891;28;20044;-67
2023/08/04 04:09:23;;;;;;;18.67;16.67;;;;;;;-145.63;53.24;38130.63;5019696;28;20038;-67
2023/08/04 04:11:49;;;;;;;19.50;17.33;;;;;;;-145.63;53.10;38097.41;5041279;28;20514;-68
2023/08/04 04:14:15;;;;;;;21.00;17.40;;;;;;;-145.63;52.94;38028.97;5027957;28;20025;-68
2023/08/04 04:16:40;;;;;;;21.83;17.75;;;;;;;-145.63;52.77;38032.88;5047004;28;20225;-68
2023/08/04 04:19:06;;;;;;;23.33;17.88;;;;;;;-145.63;52.78;38060.25;5030739;28;20050;-68
2023/08/04 04:21:32;;;;;;;21.95;17.20;;;;;;;-145.63;52.71;38032.88;5033712;28;20038;-67
2023/08/04 04:23:57;;;;;;;18.80;16.65;;;;;;;-145.63;52.43;38003.56;5033395;28;20029;-68
2023/08/04 04:26:24;;;;;;;18.25;16.45;;;;;;;-145.63;52.26;38040.69;5043708;28;20218;-67
2023/08/04 04:28:49;;;;;;;18.15;15.95;;;;;;;-145.63;52.25;38017.25;5026939;28;20029;-67
2023/08/04 04:31:15;;;;;;;18.13;16.15;;;;;;;-145.63;52.50;38036.78;5036675;28;20226;-67
2023/08/04 04:33:41;;;;;;;19.33;17.30;;;;;;;-145.63;52.56;38023.09;5033329;28;20040;-67
2023/08/04 04:36:06;;;;;;;18.05;16.17;;;;;;;-145.63;52.53;38013.31;5030064;28;20330;-68
2023/08/04 04:38:32;;;;;;;25.17;17.25;;;;;;;-145.63;52.30;38025.06;5043290;28;20030;-67
2023/08/04 04:41:00;;;;;;;19.42;16.48;;;;;;;-145.63;52.21;37948.81;5026349;28;20072;-68
2023/08/04 04:43:26;;;;;;;19.25;15.75;;;;;;;-145.63;51.99;37964.44;5043639;28;20084;-67
2023/08/04 04:45:52;;;;;;;17.77;15.98;;;;;;;-145.63;52.13;37978.13;5032562;28;20030;-67
2023/08/04 04:48:19;;;;;;;23.67;16.55;;;;;;;-145.63;51.89;37919.47;5035655;28;20093;-67
2023/08/04 04:50:45;;;;;;;20.15;16.13;;;;;;;-145.63;51.67;37905.81;5041037;28;20037;-67
2023/08/04 04:53:12;;;;;;;20.58;16.83;;;;;;;-145.63;51.70;37909.72;5026297;28;20053;-67
2023/08/04 04:55:37;;;;;;;17.63;15.88;;;;;;;-145.63;51.63;37905.81;5026464;28;20033;-68
2023/08/04 04:58:03;;;;;;;17.95;15.93;;;;;;;-145.63;51.42;37847.16;5041381;28;20025;-66
2023/08/04 05:00:31;;;;;;;23.88;17.50;;;;;;;-145.63;50.87;37827.59;5037800;28;21092;-67
2023/08/04 05:02:57;;;;;;;23.38;17.48;;;;;;;-145.63;50.91;37831.50;5041431;28;20108;-67
2023/08/04 05:05:23;;;;;;;18.77;16.77;;;;;;;-145.63;50.69;37835.41;5026037;28;20038;-67
2023/08/04 05:07:48;;;;;;;22.45;17.23;;;;;;;-145.63;50.51;37806.09;5026229;28;20037;-68
2023/08/04 05:10:14;;;;;;;16.33;14.63;;;;;;;-145.63;50.36;37729.84;5025944;28;20022;-68
2023/08/04 05:12:40;;;;;;;21.42;16.65;;;;;;;-145.63;50.07;37739.63;5025178;28;20101;-67
2023/08/04 05:15:06;;;;;;;20.45;16.70;;;;;;;-145.63;49.97;37716.16;5025650;28;20018;-68
2023/08/04 05:17:33;;;;;;;23.67;17.55;;;;;;;-145.63;49.41;37718.13;5025680;28;20079;-67
2023/08/04 05:19:58;;;;;;;22.30;17.02;;;;;;;-145.63;49.48;37682.94;5025868;28;20022;-67
2023/08/04 05:22:24;;;;;;;20.83;17.27;;;;;;;-145.63;48.85;37657.50;5040972;28;20028;-66
2023/08/04 05:24:50;;;;;;;65.93;24.98;;;;;;;-145.63;48.85;37600.81;5032382;28;20025;-67
2023/08/04 05:27:15;;;;;;;27.30;17.05;;;;;;;-145.63;48.88;37573.47;5029509;28;20025;-67
2023/08/04 05:29:41;;;;;;;25.15;16.13;;;;;;;-145.63;48.79;37581.28;5025799;28;20030;-68
2023/08/04 05:32:07;;;;;;;21.40;16.92;;;;;;;-145.63;48.34;37622.31;5033359;28;20348;-67
2023/08/04 05:34:32;;;;;;;18.98;15.82;;;;;;;-145.63;48.66;37550.00;5040616;28;20021;-68
2023/08/04 05:36:58;;;;;;;20.88;15.63;;;;;;;-145.63;48.45;37573.47;5039833;28;20354;-68
2023/08/04 05:39:23;;;;;;;19.25;17.08;;;;;;;-145.63;48.16;37628.19;5038807;28;20037;-69
2023/08/04 05:41:49;;;;;;;19.67;16.00;;;;;;;-145.63;48.09;37501.13;5035670;28;20025;-69
2023/08/04 05:44:15;;;;;;;17.80;16.00;;;;;;;-145.63;47.67;37495.25;5045549;28;20066;-67
2023/08/04 05:46:41;;;;;;;20.85;17.27;;;;;;;-145.63;47.02;37460.06;5045146;28;20026;-69
2023/08/04 05:49:06;;;;;;;21.38;16.27;;;;;;;-145.63;47.03;37503.09;5029672;28;20058;-68
2023/08/04 05:51:32;;;;;;;23.48;16.65;;;;;;;-145.63;46.59;37503.09;5025457;28;20080;-67
2023/08/04 05:53:58;;;;;;;18.70;16.42;;;;;;;-145.63;47.08;37471.81;5036983;28;20037;-66
2023/08/04 05:56:24;;;;;;;21.65;15.70;;;;;;;-145.63;46.85;37446.38;5045009;28;20336;-68
2023/08/04 05:58:49;;;;;;;19.27;17.00;;;;;;;-145.63;47.12;37587.13;5044999;28;20033;-67
2023/08/04 06:01:15;;;;;;;21.63;16.33;;;;;;;-145.63;46.98;37503.09;5028402;28;20109;-68
2023/08/04 06:03:40;;;;;;;19.35;15.30;;;;;;;-145.63;46.73;37483.53;5025483;28;20168;-68
2023/08/04 06:06:06;;;;;;;21.67;16.02;;;;;;;-145.63;46.79;37446.38;5031603;28;20600;-68
2023/08/04 06:08:32;;;;;;;17.45;15.15;;;;;;;-145.63;46.44;37377.97;5042883;28;20026;-69
2023/08/04 06:10:58;;;;;;;25.27;16.63;;;;;;;-145.63;46.82;37362.34;5024715;28;20053;-68
2023/08/04 06:13:24;;;;;;;18.20;16.13;;;;;;;-145.63;46.63;37374.06;5042296;28;20093;-69
2023/08/04 06:15:49;;;;;;;21.38;15.27;;;;;;;-145.63;46.73;37370.16;5040560;28;20361;-68
2023/08/04 06:18:15;;;;;;;27.13;17.52;;;;;;;-145.63;47.04;37366.25;5044930;28;20021;-68
2023/08/04 06:20:41;;;;;;;16.95;15.15;;;;;;;-145.63;46.86;37291.97;5040474;28;20029;-68
2023/08/04 06:23:06;;;;;;;16.55;14.85;;;;;;;-145.63;46.07;37139.50;5023553;28;20044;-68
2023/08/04 06:25:32;;;;;;;21.55;15.25;;;;;;;-145.63;46.12;37239.19;5042845;28;20048;-67
2023/08/04 06:27:58;;;;;;;17.10;15.02;;;;;;;-145.63;45.57;37295.88;5030690;28;20026;-68
2023/08/04 06:30:25;;;;;;;22.30;14.30;;;;;;;-145.63;45.31;37276.31;5033641;28;20085;-67
2023/08/04 06:32:51;;;;;;;20.35;15.38;;;;;;;-145.63;44.55;37315.41;5039855;28;20026;-68
2023/08/04 06:35:17;;;;;;;18.10;13.63;;;;;;;-145.63;45.11;37248.97;5028734;28;20048;-69
2023/08/04 06:37:43;;;;;;;17.10;15.23;;;;;;;-145.63;44.66;37268.50;5024462;28;20214;-69
2023/08/04 06:40:10;;;;;;;15.88;14.10;;;;;;;-145.63;45.25;37219.63;5037297;28;20025;-67
2023/08/04 06:42:35;;;;;;;16.85;14.07;;;;;;;-145.63;44.82;37200.09;5041833;28;20092;-68
2023/08/04 06:45:01;;;;;;;13.95;12.45;;;;;;;-145.63;44.62;37207.91;5039076;28;20025;-68
2023/08/04 06:47:31;;;;;;;17.77;13.43;;;;;;;-145.63;44.29;37178.59;5037720;28;20049;-68
2023/08/04 06:49:56;;;;;;;19.88;12.68;;;;;;;-145.63;43.62;37100.41;5028940;28;20188;-67
2023/08/04 06:52:22;;;;;;;13.93;12.27;;;;;;;-145.63;43.33;37233.31;5040851;28;20214;-68
2023/08/04 06:54:48;;;;;;;13.23;11.63;;;;;;;-145.63;43.41;37069.13;5031803;28;20041;-67
2023/08/04 06:57:14;;;;;;;17.02;12.65;;;;;;;-145.63;43.36;37084.75;5031243;28;20071;-67
2023/08/04 06:59:40;;;;;;;13.95;12.50;;;;;;;-145.63;43.38;37069.13;5041374;28;20084;-67
2023/08/04 07:02:05;;;;;;;13.90;12.05;;;;;;;-145.63;43.04;37084.75;5023928;28;20033;-69
2023/08/04 07:04:31;;;;;;;12.82;10.85;;;;;;;-145.63;42.64;37104.31;5041881;28;20314;-68
2023/08/04 07:06:57;;;;;;;14.40;9.85;;;;;;;-145.63;43.72;37143.41;5030389;28;20315;-68
2023/08/04 07:09:23;;;;;;;9.60;8.65;;;;;;;-145.63;42.24;37245.06;5032664;28;20025;-68
2023/08/04 07:11:49;;;;;;;10.32;9.30;;;;;;;-145.63;42.60;37161.00;5039777;28;20018;-69
2023/08/04 07:14:15;;;;;;;10.57;9.50;;;;;;;-145.63;42.08;37147.31;5024095;28;20017;-68
2023/08/04 07:16:40;;;;;;;10.35;9.18;;;;;;;-145.63;42.92;37155.13;5042895;28;20025;-69
2023/08/04 07:19:06;;;;;;;10.70;8.75;;;;;;;-145.63;42.09;37200.09;5039029;28;20081;-68
2023/08/04 07:21:31;;;;;;;10.85;9.43;;;;;;;-145.63;42.90;37237.22;5028884;28;20037;-69
2023/08/04 07:23:57;;;;;;;14.07;9.45;;;;;;;-145.63;42.52;37194.22;5028720;28;20210;-69
2023/08/04 07:26:23;;;;;;;10.75;8.77;;;;;;;-145.63;42.31;37176.63;5022746;28;20214;-69
2023/08/04 07:28:49;;;;;;;10.35;9.10;;;;;;;-145.63;43.19;37166.84;5043485;28;20273;-68
2023/08/04 07:31:14;;;;;;;12.05;8.95;;;;;;;-145.63;43.42;37190.31;5027952;28;20298;-69
2023/08/04 07:33:40;;;;;;;9.80;8.80;;;;;;;-145.63;43.19;37217.69;5033922;28;20029;-69
2023/08/04 07:36:06;;;;;;;10.27;9.00;;;;;;;-145.63;42.75;37213.78;5028769;28;20084;-68
2023/08/04 07:38:32;;;;;;;9.57;8.70;;;;;;;-145.63;42.63;37186.41;5041085;28;20076;-67
2023/08/04 07:40:58;;;;;;;10.80;8.02;;;;;;;-145.63;43.13;37225.50;5029342;28;20171;-68
2023/08/04 07:43:25;;;;;;;9.50;8.55;;;;;;;-145.63;42.88;37213.78;5025798;28;20068;-69
2023/08/04 07:45:53;;;;;;;9.52;8.38;;;;;;;-145.63;42.69;37166.84;5023012;28;20065;-69
2023/08/04 07:48:19;;;;;;;9.32;8.52;;;;;;;-145.63;43.19;37211.81;5031002;28;20025;-68
2023/08/04 07:50:46;;;;;;;8.68;7.82;;;;;;;-145.63;42.12;36719.25;5040313;28;20033;-69
2023/08/04 07:53:12;;;;;;;12.30;8.55;;;;;;;-145.63;42.02;37233.31;5023481;28;20030;-69
2023/08/04 07:55:39;;;;;;;8.90;8.10;;;;;;;-145.63;41.77;37190.31;5033632;28;20060;-68
2023/08/04 07:58:05;;;;;;;10.32;7.68;;;;;;;-145.63;42.66;37223.53;5039462;28;20033;-69
2023/08/04 08:00:31;;;;;;;9.98;7.90;;;;;;;-145.63;41.86;37164.91;5031634;28;20199;-68
2023/08/04 08:02:57;;;;;;;9.05;8.25;;;;;;;-145.63;42.01;37118.00;5027220;28;20049;-68
2023/08/04 08:05:23;;;;;;;8.07;7.28;;;;;;;-145.63;41.59;37106.25;5043114;28;20025;-70
2023/08/04 08:07:49;;;;;;;8.82;7.40;;;;;;;-145.63;41.15;37032.00;5023350;28;20028;-68
2023/08/04 08:10:15;;;;;;;11.63;7.78;;;;;;;-145.63;39.57;37016.34;5038357;28;20366;-70
2023/08/04 08:12:41;;;;;;;10.25;8.10;;;;;;;-145.63;39.39;36994.84;5032398;28;20097;-70
2023/08/04 08:15:07;;;;;;;8.70;7.75;;;;;;;-145.63;39.65;36957.72;5028920;28;20025;-69
2023/08/04 08:17:33;;;;;;;8.35;7.55;;;;;;;-145.63;39.21;36944.03;5031807;28;20038;-67
2023/08/04 08:19:59;;;;;;;8.00;7.07;;;;;;;-145.63;38.82;36934.25;5033542;28;20029;-69
2023/08/04 08:22:24;;;;;;;7.97;7.18;;;;;;;-145.63;40.06;36924.50;5032688;28;20029;-68
2023/08/04 08:24:56;;;;;;;12.25;7.47;;;;;;;-145.63;38.59;36832.63;5031641;28;20025;-70
2023/08/04 08:27:23;;;;;;;8.40;7.18;;;;;;;-145.63;39.61;37014.41;5032630;28;20029;-68
2023/08/04 08:29:54;;;;;;;7.78;7.05;;;;;;;-145.63;38.57;37069.13;5032477;28;20028;-68
2023/08/04 08:32:20;;;;;;;14.00;7.25;;;;;;;-145.63;38.86;36983.13;5046917;28;20266;-70
2023/08/04 08:34:46;;;;;;;10.85;7.28;;;;;;;-145.63;39.46;36994.84;5029289;28;20029;-68
2023/08/04 08:37:12;;;;;;;9.40;8.23;;;;;;;-145.63;38.88;36928.41;5031500;28;20329;-70
2023/08/04 08:39:37;;;;;;;8.05;7.30;;;;;;;-145.63;38.17;36916.66;5032835;28;20040;-69
2023/08/04 08:42:03;;;;;;;11.30;7.15;;;;;;;-145.63;38.97;36826.75;5038324;28;20029;-68
2023/08/04 08:44:29;;;;;;;7.80;6.95;;;;;;;-145.63;38.11;36789.63;5042843;28;20084;-69
2023/08/04 08:46:55;;;;;;;8.35;7.05;;;;;;;-145.63;37.82;36826.75;5044267;28;20033;-69
2023/08/04 08:49:26;;;;;;;8.15;7.45;;;;;;;-145.63;37.75;36793.53;5030868;28;20022;-70
2023/08/04 08:51:54;;;;;;;9.82;8.80;;;;;;;-145.63;38.01;36791.56;5037739;28;20036;-67
2023/08/04 08:54:20;;;;;;;8.75;7.95;;;;;;;-145.63;37.77;36748.59;5038040;28;20030;-68
2023/08/04 08:56:46;;;;;;;8.70;6.88;;;;;;;-145.63;37.82;36748.59;5026546;28;20030;-70
2023/08/04 08:59:12;;;;;;;8.02;6.90;;;;;;;-145.63;37.86;36748.59;5026047;28;20045;-70
2023/08/04 09:01:37;;;;;;;7.30;6.60;;;;;;;-145.63;38.00;36772.03;5043856;28;20370;-69
2023/08/04 09:04:04;;;;;;;8.75;6.25;;;;;;;-145.63;37.31;36725.13;5034215;28;20117;-68
2023/08/04 09:06:30;;;;;;;8.35;7.03;;;;;;;-145.63;37.38;36672.34;5036977;28;20029;-67
2023/08/04 09:09:00;;;;;;;9.13;6.65;;;;;;;-145.63;37.06;36658.69;5035016;28;20020;-69
2023/08/04 09:11:29;;;;;;;7.57;6.20;;;;;;;-145.63;37.10;36611.78;5037684;28;20025;-68
2023/08/04 09:13:55;;;;;;;7.85;6.72;;;;;;;-145.63;35.00;36613.72;5045595;28;20529;-69
2023/08/04 09:16:39;;;;;;;7.15;6.47;;;;;;;-145.63;35.31;36557.03;5045828;28;20395;-68
2023/08/04 09:19:06;;;;;;;9.93;6.68;;;;;;;-145.63;34.92;36551.19;5032724;28;20314;-70
2023/08/04 09:21:33;;;;;;;11.05;6.78;;;;;;;-145.63;35.53;36527.72;5034274;28;20061;-70
2023/08/04 09:24:00;;;;;;;6.88;6.28;;;;;;;-145.63;34.56;36484.72;5035989;28;20048;-70
2023/08/04 09:26:39;;;;;;;6.88;6.18;;;;;;;-145.63;33.79;36392.88;5025537;28;20030;-70
2023/08/04 09:29:06;;;;;;;6.68;6.07;;;;;;;-145.63;33.72;36433.91;5025752;28;20045;-68
2023/08/04 09:31:42;;;;;;;6.65;6.00;;;;;;;-145.63;33.76;36385.06;5042100;28;20059;-68
2023/08/04 09:34:10;;;;;;;6.97;6.38;;;;;;;-145.63;34.60;36388.97;5042398;28;20052;-67
2023/08/04 09:36:47;;;;;;;6.95;6.40;;;;;;;-145.63;34.04;36400.69;5042667;28;20034;-70
2023/08/04 09:39:14;;;;;;;6.68;5.95;;;;;;;-145.63;33.55;36463.25;5039825;28;20284;-69
2023/08/04 09:41:46;;;;;;;8.18;5.97;;;;;;;-145.63;33.83;36435.88;5037718;28;20025;-70
2023/08/04 09:44:14;;;;;;;8.27;6.30;;;;;;;-145.63;33.85;36367.47;5033207;28;20045;-68
2023/08/04 09:46:48;;;;;;;5.82;5.35;;;;;;;-145.63;32.74;36412.44;5031818;28;20057;-69
2023/08/04 09:49:13;;;;;;;6.30;4.53;;;;;;;-145.63;30.98;36443.69;5039325;28;20033;-69
2023/08/04 09:51:41;;;;;;;5.03;4.53;;;;;;;-145.63;30.70;36471.06;5032762;28;20101;-70
2023/08/04 09:54:08;;;;;;;6.97;4.60;;;;;;;-145.63;30.67;36482.78;5042613;28;20398;-68
2023/08/04 09:56:34;;;;;;;6.50;4.80;;;;;;;-145.63;30.45;36473.00;5044763;28;20128;-70
2023/08/04 09:59:00;;;;;;;7.35;4.68;;;;;;;-145.63;28.79;36521.88;5024054;28;20188;-70
2023/08/04 10:01:25;;;;;;;5.18;4.75;;;;;;;-145.63;29.87;36457.38;5040466;28;20096;-69
2023/08/04 10:03:55;;;;;;;8.57;4.93;;;;;;;-145.63;29.83;36580.50;5040477;28;20046;-70
2023/08/04 10:06:21;;;;;;;6.03;4.40;;;;;;;-145.63;30.31;36431.97;5024985;28;20036;-71
2023/08/04 10:08:53;;;;;;;7.18;4.80;;;;;;;-145.63;30.31;36375.28;5024738;28;20202;-71
2023/08/04 10:11:20;;;;;;;6.03;5.32;;;;;;;-145.63;30.92;36365.53;5024728;28;20032;-71
2023/08/04 10:13:48;;;;;;;8.80;4.65;;;;;;;-145.63;28.82;36357.72;5043203;28;20025;-72
2023/08/04 10:16:18;;;;;;;7.18;4.90;;;;;;;-145.63;28.70;36406.56;5030989;28;20218;-71
2023/08/04 10:19:02;;;;;;;5.93;4.82;;;;;;;-145.63;29.19;36422.19;5034362;28;20060;-64
2023/08/04 10:21:29;;;;;;;5.32;4.82;;;;;;;-145.63;29.08;36404.59;5034894;28;20060;-70
2023/08/04 10:23:57;;;;;;;5.00;4.57;;;;;;;-145.63;30.02;36435.88;5032420;28;20049;-70
2023/08/04 10:26:23;;;;;;;5.68;4.25;;;;;;;-145.63;28.15;36474.97;5024761;28;20030;-69
2023/08/04 10:29:09;;;;;;;6.75;4.97;;;;;;;-145.63;28.26;36435.88;5024410;28;20022;-68
2023/08/04 10:31:55;;;;;;;6.57;4.55;;;;;;;-145.63;27.93;36359.66;5040912;28;20088;-69
2023/08/04 10:34:40;;;;;;;5.20;4.68;;;;;;;-145.63;28.20;36422.19;5030681;28;20020;-69
2023/08/04 10:37:14;;;;;;;8.07;4.72;;;;;;;-145.63;29.41;36351.84;5034376;28;20033;-70
2023/08/04 10:40:01;;;;;;;6.35;5.22;;;;;;;-145.63;29.16;36369.44;5028799;28;20195;-67
2023/08/04 10:42:31;;;;;;;6.95;4.40;;;;;;;-145.63;28.04;36414.38;5034202;28;20033;-68
2023/08/04 10:45:05;;;;;;;5.05;4.65;;;;;;;-145.63;28.22;36400.69;5039217;28;20026;-69
2023/08/04 10:47:51;;;;;;;7.45;5.03;;;;;;;-145.63;28.14;36422.19;5024417;28;20052;-69
2023/08/04 10:50:18;;;;;;;6.45;4.07;;;;;;;-145.63;28.37;36396.78;5044045;28;20322;-69
2023/08/04 10:52:44;;;;;;;5.28;4.40;;;;;;;-145.63;28.11;36242.41;5034690;28;20076;-69
2023/08/04 10:55:12;;;;;;;5.72;4.50;;;;;;;-145.63;27.61;36408.50;5027729;28;20048;-68
2023/08/04 10:57:39;;;;;;;5.80;4.88;;;;;;;-145.63;26.53;36463.25;5032201;28;20029;-69
2023/08/04 11:00:10;;;;;;;5.72;4.20;;;;;;;-145.63;27.47;36396.78;5039670;28;20026;-68
2023/08/04 11:02:37;;;;;;;5.05;4.55;;;;;;;-145.63;27.29;36387.03;5024064;28;20053;-69
2023/08/04 11:05:06;;;;;;;5.57;4.85;;;;;;;-145.63;26.48;36404.59;5023822;28;20048;-69